Time,TemperatureF,DewpointF,PressureIn,WindDirection,WindDirectionDegrees,WindSpeedMPH,WindSpeedGustMPH,Humidity,HourlyPrecipIn,Conditions,Clouds,dailyrainin,SolarRadiationWatts/m^2,SoftwareType,DateUTC
2013-02-10 00:11:00,38.0,19.0,-100.00,West,265,1.0,7.0,45,0.00,,,0.03,0.000000,,2013-02-10 07:11:00,
2013-02-10 00:21:00,38.0,19.0,-100.00,West,265,1.0,7.0,45,0.00,,,0.03,0.000000,,2013-02-10 07:21:00,
2013-02-10 00:31:00,38.0,19.0,-100.00,West,265,1.0,7.0,45,0.00,,,0.03,0.000000,,2013-02-10 07:31:00,
2013-02-10 00:41:00,38.0,19.0,-100.00,West,265,1.0,7.0,45,0.00,,,0.03,0.000000,,2013-02-10 07:41:00,
2013-02-10 00:51:00,38.0,19.0,-100.00,West,265,1.0,7.0,45,0.00,,,0.03,0.000000,,2013-02-10 07:51:00,
2013-02-10 00:52:00,36.0,20.0,-100.00,WSW,243,1.0,5.0,52,0.00,,,0.03,0.000000,,2013-02-10 07:52:00,
2013-02-10 01:11:00,36.0,20.0,-100.00,WSW,243,1.0,5.0,52,0.00,,,0.03,0.000000,,2013-02-10 08:11:00,
2013-02-10 01:21:00,36.0,20.0,-100.00,WSW,243,1.0,5.0,52,0.00,,,0.03,0.000000,,2013-02-10 08:21:00,
2013-02-10 01:32:00,36.0,20.0,-100.00,WSW,243,1.0,5.0,52,0.00,,,0.03,0.000000,,2013-02-10 08:32:00,
2013-02-10 01:43:00,36.0,20.0,-100.00,WSW,243,1.0,5.0,52,0.00,,,0.03,0.000000,,2013-02-10 08:43:00,
2013-02-10 02:11:00,36.0,21.0,-100.00,South,190,0.0,5.0,53,0.00,,,0.03,0.000000,,2013-02-10 09:11:00,
2013-02-10 02:21:00,36.0,21.0,-100.00,South,190,0.0,5.0,53,0.00,,,0.03,0.000000,,2013-02-10 09:21:00,
2013-02-10 02:31:00,36.0,21.0,-100.00,South,190,0.0,5.0,53,0.00,,,0.03,0.000000,,2013-02-10 09:31:00,
2013-02-10 02:41:00,36.0,21.0,-100.00,South,190,0.0,5.0,53,0.00,,,0.03,0.000000,,2013-02-10 09:41:00,
2013-02-10 02:51:00,36.0,21.0,-100.00,South,190,0.0,5.0,53,0.00,,,0.03,0.000000,,2013-02-10 09:51:00,
2013-02-10 03:11:00,37.0,21.0,-100.00,SW,233,3.0,5.0,52,0.00,,,0.03,0.000000,,2013-02-10 10:11:00,
2013-02-10 03:21:00,37.0,21.0,-100.00,SW,233,3.0,5.0,52,0.00,,,0.03,0.000000,,2013-02-10 10:21:00,
2013-02-10 03:31:00,37.0,21.0,-100.00,SW,233,3.0,5.0,52,0.00,,,0.03,0.000000,,2013-02-10 10:31:00,
2013-02-10 03:41:00,37.0,21.0,-100.00,SW,233,3.0,5.0,52,0.00,,,0.03,0.000000,,2013-02-10 10:41:00,
2013-02-10 03:51:00,37.0,21.0,-100.00,SW,233,3.0,5.0,52,0.00,,,0.03,0.000000,,2013-02-10 10:51:00,
2013-02-10 03:52:00,37.0,19.0,-100.00,SW,222,6.0,10.0,48,0.00,,,0.03,0.000000,,2013-02-10 10:52:00,
2013-02-10 04:11:00,37.0,19.0,-100.00,SW,222,6.0,10.0,48,0.00,,,0.03,0.000000,,2013-02-10 11:11:00,
2013-02-10 04:21:00,37.0,19.0,-100.00,SW,222,6.0,10.0,48,0.00,,,0.03,0.000000,,2013-02-10 11:21:00,
2013-02-10 04:32:00,37.0,19.0,-100.00,SW,222,6.0,10.0,48,0.00,,,0.03,0.000000,,2013-02-10 11:32:00,
2013-02-10 04:42:00,37.0,19.0,-100.00,SW,222,6.0,10.0,48,0.00,,,0.03,0.000000,,2013-02-10 11:42:00,
2013-02-10 04:52:00,36.0,20.0,-100.00,SSW,211,5.0,12.0,51,0.00,,,0.03,0.000000,,2013-02-10 11:52:00,
2013-02-10 05:12:00,36.0,20.0,-100.00,SSW,211,5.0,12.0,51,0.00,,,0.03,0.000000,,2013-02-10 12:12:00,
2013-02-10 05:21:00,36.0,20.0,-100.00,SSW,211,5.0,12.0,51,0.00,,,0.03,0.000000,,2013-02-10 12:21:00,
2013-02-10 05:32:00,36.0,20.0,-100.00,SSW,211,5.0,12.0,51,0.00,,,0.03,0.000000,,2013-02-10 12:32:00,
2013-02-10 05:41:00,36.0,20.0,-100.00,SSW,211,5.0,12.0,51,0.00,,,0.03,0.000000,,2013-02-10 12:41:00,
2013-02-10 08:11:00,35.0,20.0,-100.00,WSW,240,4.0,9.0,54,-99.99,,,0.03,7.000000,,2013-02-10 15:11:00,
2013-02-10 08:21:00,35.0,20.0,-100.00,WSW,240,4.0,9.0,54,-99.99,,,0.03,7.000000,,2013-02-10 15:21:00,
2013-02-10 08:31:00,35.0,20.0,-100.00,WSW,240,4.0,9.0,54,-99.99,,,0.03,7.000000,,2013-02-10 15:31:00,
2013-02-10 08:41:00,35.0,20.0,-100.00,WSW,240,4.0,9.0,54,-99.99,,,0.03,7.000000,,2013-02-10 15:41:00,
2013-02-10 08:51:00,35.0,20.0,-100.00,WSW,240,4.0,9.0,54,-99.99,,,0.03,7.000000,,2013-02-10 15:51:00,
2013-02-10 09:11:00,38.0,22.0,-100.00,SW,227,4.0,10.0,51,0.00,,,0.03,136.000000,,2013-02-10 16:11:00,
2013-02-10 09:21:00,38.0,22.0,-100.00,SW,227,4.0,10.0,51,0.00,,,0.03,136.000000,,2013-02-10 16:21:00,
2013-02-10 09:32:00,38.0,22.0,-100.00,SW,227,4.0,10.0,51,0.00,,,0.03,136.000000,,2013-02-10 16:32:00,
2013-02-10 09:42:00,38.0,22.0,-100.00,SW,227,4.0,10.0,51,0.00,,,0.03,136.000000,,2013-02-10 16:42:00,
2013-02-10 09:51:00,38.0,22.0,-100.00,SW,227,4.0,10.0,51,0.00,,,0.03,136.000000,,2013-02-10 16:51:00,
2013-02-10 09:52:00,37.0,20.0,-100.00,SW,215,5.0,13.0,50,0.00,,,0.01,208.000000,,2013-02-10 16:52:00,
2013-02-10 10:21:00,37.0,20.0,-100.00,SW,215,5.0,13.0,50,0.00,,,0.01,208.000000,,2013-02-10 17:21:00,
2013-02-10 10:32:00,37.0,20.0,-100.00,SW,215,5.0,13.0,50,0.00,,,0.01,208.000000,,2013-02-10 17:32:00,
2013-02-10 10:42:00,37.0,20.0,-100.00,SW,215,5.0,13.0,50,0.00,,,0.01,208.000000,,2013-02-10 17:42:00,
2013-02-10 10:52:00,40.0,21.0,-100.00,SE,135,3.0,13.0,47,0.00,,,0.00,270.000000,,2013-02-10 17:52:00,
2013-02-10 11:21:00,40.0,21.0,-100.00,SE,135,3.0,13.0,47,0.00,,,0.00,270.000000,,2013-02-10 18:21:00,
2013-02-10 11:32:00,40.0,21.0,-100.00,SE,135,3.0,13.0,47,0.00,,,0.00,270.000000,,2013-02-10 18:32:00,
2013-02-10 11:42:00,40.0,21.0,-100.00,SE,135,3.0,13.0,47,0.00,,,0.00,270.000000,,2013-02-10 18:42:00,
2013-02-10 12:11:00,41.0,23.0,-100.00,ESE,104,0.0,7.0,49,0.00,,,0.00,319.000000,,2013-02-10 19:11:00,
2013-02-10 12:21:00,41.0,23.0,-100.00,ESE,104,0.0,7.0,49,0.00,,,0.00,319.000000,,2013-02-10 19:21:00,
2013-02-10 12:32:00,41.0,23.0,-100.00,ESE,104,0.0,7.0,49,0.00,,,0.00,319.000000,,2013-02-10 19:32:00,
2013-02-10 12:42:00,41.0,23.0,-100.00,ESE,104,0.0,7.0,49,0.00,,,0.00,319.000000,,2013-02-10 19:42:00,
2013-02-10 12:51:00,41.0,23.0,-100.00,ESE,104,0.0,7.0,49,0.00,,,0.00,319.000000,,2013-02-10 19:51:00,
2013-02-10 12:52:00,44.0,17.0,-100.00,WSW,248,2.0,8.0,33,0.00,,,0.00,509.000000,,2013-02-10 19:52:00,
2013-02-10 13:11:00,44.0,17.0,-100.00,WSW,248,2.0,8.0,33,0.00,,,0.00,509.000000,,2013-02-10 20:11:00,
2013-02-10 13:21:00,44.0,17.0,-100.00,WSW,248,2.0,8.0,33,0.00,,,0.00,509.000000,,2013-02-10 20:21:00,
2013-02-10 13:32:00,44.0,17.0,-100.00,WSW,248,2.0,8.0,33,0.00,,,0.00,509.000000,,2013-02-10 20:32:00,
2013-02-10 13:42:00,44.0,17.0,-100.00,WSW,248,2.0,8.0,33,0.00,,,0.00,509.000000,,2013-02-10 20:42:00,
2013-02-10 14:11:00,44.0,15.0,-100.00,West,267,2.0,9.0,30,0.00,,,0.00,478.000000,,2013-02-10 21:11:00,
2013-02-10 14:21:00,44.0,15.0,-100.00,West,267,2.0,9.0,30,0.00,,,0.00,478.000000,,2013-02-10 21:21:00,
2013-02-10 14:32:00,44.0,15.0,-100.00,West,267,2.0,9.0,30,0.00,,,0.00,478.000000,,2013-02-10 21:32:00,
2013-02-10 14:42:00,44.0,15.0,-100.00,West,267,2.0,9.0,30,0.00,,,0.00,478.000000,,2013-02-10 21:42:00,
2013-02-10 14:51:00,44.0,15.0,-100.00,West,267,2.0,9.0,30,0.00,,,0.00,478.000000,,2013-02-10 21:51:00,
2013-02-10 14:52:00,45.0,11.0,-100.00,NW,311,3.0,15.0,25,0.00,,,0.00,681.000000,,2013-02-10 21:52:00,
2013-02-10 15:21:00,45.0,11.0,-100.00,NW,311,3.0,15.0,25,0.00,,,0.00,681.000000,,2013-02-10 22:21:00,
2013-02-10 15:32:00,45.0,11.0,-100.00,NW,311,3.0,15.0,25,0.00,,,0.00,681.000000,,2013-02-10 22:32:00,
2013-02-10 15:42:00,45.0,11.0,-100.00,NW,311,3.0,15.0,25,0.00,,,0.00,681.000000,,2013-02-10 22:42:00,
2013-02-10 15:52:00,45.0,12.0,-100.00,NNE,28,3.0,17.0,26,0.00,,,0.00,425.000000,,2013-02-10 22:52:00,
2013-02-10 16:11:00,45.0,12.0,-100.00,NNE,28,3.0,17.0,26,0.00,,,0.00,425.000000,,2013-02-10 23:11:00,
2013-02-10 16:21:00,45.0,12.0,-100.00,NNE,28,3.0,17.0,26,0.00,,,0.00,425.000000,,2013-02-10 23:21:00,
2013-02-10 16:32:00,45.0,12.0,-100.00,NNE,28,3.0,17.0,26,0.00,,,0.00,425.000000,,2013-02-10 23:32:00,
2013-02-10 16:41:00,45.0,12.0,-100.00,NNE,28,3.0,17.0,26,0.00,,,0.00,425.000000,,2013-02-10 23:41:00,
2013-02-10 17:22:00,44.0,13.0,-100.00,WNW,303,4.0,9.0,28,0.00,,,0.00,326.000000,,2013-02-11 00:22:00,
2013-02-10 17:32:00,44.0,13.0,-100.00,WNW,303,4.0,9.0,28,0.00,,,0.00,326.000000,,2013-02-11 00:32:00,
2013-02-10 17:41:00,44.0,13.0,-100.00,WNW,303,4.0,9.0,28,0.00,,,0.00,326.000000,,2013-02-11 00:41:00,
2013-02-10 17:51:00,44.0,13.0,-100.00,WNW,303,4.0,9.0,28,0.00,,,0.00,326.000000,,2013-02-11 00:51:00,
2013-02-10 18:11:00,42.0,12.0,-100.00,NW,322,0.0,6.0,29,0.00,,,0.00,60.000000,,2013-02-11 01:11:00,
2013-02-10 18:21:00,42.0,12.0,-100.00,NW,322,0.0,6.0,29,0.00,,,0.00,60.000000,,2013-02-11 01:21:00,
2013-02-10 18:32:00,42.0,12.0,-100.00,NW,322,0.0,6.0,29,0.00,,,0.00,60.000000,,2013-02-11 01:32:00,
2013-02-10 18:41:00,42.0,12.0,-100.00,NW,322,0.0,6.0,29,0.00,,,0.00,60.000000,,2013-02-11 01:41:00,
2013-02-10 18:51:00,42.0,12.0,-100.00,NW,322,0.0,6.0,29,0.00,,,0.00,60.000000,,2013-02-11 01:51:00,
2013-02-10 18:52:00,42.0,15.0,-100.00,NW,322,4.0,6.0,33,0.00,,,0.00,8.000000,,2013-02-11 01:52:00,
2013-02-10 19:21:00,42.0,15.0,-100.00,NW,322,4.0,6.0,33,0.00,,,0.00,8.000000,,2013-02-11 02:21:00,
2013-02-10 19:31:00,42.0,15.0,-100.00,NW,322,4.0,6.0,33,0.00,,,0.00,8.000000,,2013-02-11 02:31:00,
2013-02-10 19:41:00,42.0,15.0,-100.00,NW,322,4.0,6.0,33,0.00,,,0.00,8.000000,,2013-02-11 02:41:00,
2013-02-10 19:52:00,40.0,20.0,-100.00,North,351,8.0,17.0,45,0.00,,,0.00,0.000000,,2013-02-11 02:52:00,
2013-02-10 20:21:00,40.0,20.0,-100.00,North,351,8.0,17.0,45,0.00,,,0.00,0.000000,,2013-02-11 03:21:00,
2013-02-10 20:31:00,40.0,20.0,-100.00,North,351,8.0,17.0,45,0.00,,,0.00,0.000000,,2013-02-11 03:31:00,
2013-02-10 20:41:00,40.0,20.0,-100.00,North,351,8.0,17.0,45,0.00,,,0.00,0.000000,,2013-02-11 03:41:00,
2013-02-10 21:21:00,37.0,21.0,-100.00,NNW,348,7.0,14.0,52,0.00,,,0.00,0.000000,,2013-02-11 04:21:00,
2013-02-10 21:31:00,37.0,21.0,-100.00,NNW,348,7.0,14.0,52,0.00,,,0.00,0.000000,,2013-02-11 04:31:00,
2013-02-10 21:41:00,37.0,21.0,-100.00,NNW,348,7.0,14.0,52,0.00,,,0.00,0.000000,,2013-02-11 04:41:00,
2013-02-10 21:51:00,37.0,21.0,-100.00,NNW,348,7.0,14.0,52,0.00,,,0.00,0.000000,,2013-02-11 04:51:00,
2013-02-10 21:52:00,39.0,18.0,-100.00,NW,311,7.0,17.0,42,0.00,,,0.00,0.000000,,2013-02-11 04:52:00,
2013-02-10 22:11:00,39.0,18.0,-100.00,NW,311,7.0,17.0,42,0.00,,,0.00,0.000000,,2013-02-11 05:11:00,
2013-02-10 22:22:00,39.0,18.0,-100.00,NW,311,7.0,17.0,42,0.00,,,0.00,0.000000,,2013-02-11 05:22:00,
2013-02-10 22:31:00,39.0,18.0,-100.00,NW,311,7.0,17.0,42,0.00,,,0.00,0.000000,,2013-02-11 05:31:00,
2013-02-10 22:41:00,39.0,18.0,-100.00,NW,311,7.0,17.0,42,0.00,,,0.00,0.000000,,2013-02-11 05:41:00,
2013-02-10 23:11:00,37.0,20.0,-100.00,North,6,5.0,9.0,49,0.00,,,0.00,0.000000,,2013-02-11 06:11:00,
2013-02-10 23:21:00,37.0,20.0,-100.00,North,6,5.0,9.0,49,0.00,,,0.00,0.000000,,2013-02-11 06:21:00,
2013-02-10 23:32:00,37.0,20.0,-100.00,North,6,5.0,9.0,49,0.00,,,0.00,0.000000,,2013-02-11 06:32:00,
2013-02-10 23:42:00,37.0,20.0,-100.00,North,6,5.0,9.0,49,0.00,,,0.00,0.000000,,2013-02-11 06:42:00,
2013-02-10 23:51:00,37.0,20.0,-100.00,North,6,5.0,9.0,49,0.00,,,0.00,0.000000,,2013-02-11 06:51:00,